createdAt,value
2016-12-16T00:00:56.720Z,964.49
2016-12-16T00:01:56.701Z,964.54
2016-12-16T00:02:56.998Z,964.54
2016-12-16T00:03:56.662Z,964.58
2016-12-16T00:04:56.642Z,964.49
2016-12-16T00:05:56.742Z,964.51
2016-12-16T00:06:56.605Z,964.47
2016-12-16T00:07:56.586Z,964.52
2016-12-16T00:08:56.567Z,964.5
2016-12-16T00:09:56.548Z,964.5
2016-12-16T00:10:56.527Z,964.54
2016-12-16T00:11:56.509Z,964.53
2016-12-16T00:12:56.490Z,964.5
2016-12-16T00:13:56.471Z,964.51
2016-12-16T00:14:56.452Z,964.53
2016-12-16T00:15:56.433Z,964.53
2016-12-16T00:16:56.413Z,964.5
2016-12-16T00:17:56.661Z,964.49
2016-12-16T00:18:56.374Z,964.54
2016-12-16T00:19:56.356Z,964.56
2016-12-16T00:20:56.481Z,964.53
2016-12-16T00:21:56.317Z,964.57
2016-12-16T00:22:56.298Z,964.54
2016-12-16T00:23:56.404Z,964.55
2016-12-16T00:24:56.260Z,964.55
2016-12-16T00:25:56.246Z,964.56
2016-12-16T00:26:56.221Z,964.57
2016-12-16T00:27:56.203Z,964.57
2016-12-16T00:28:56.183Z,964.56
2016-12-16T00:29:56.165Z,964.62
2016-12-16T00:30:56.146Z,964.6
2016-12-16T00:31:56.126Z,964.57
2016-12-16T00:32:56.107Z,964.57
2016-12-16T00:33:56.088Z,964.61
2016-12-16T00:34:56.069Z,964.57
2016-12-16T00:35:56.049Z,964.6
2016-12-16T00:36:56.031Z,964.61
2016-12-16T00:37:56.012Z,964.62
2016-12-16T00:38:56.155Z,964.66
2016-12-16T00:39:56.010Z,964.63
2016-12-16T00:40:55.954Z,964.66
2016-12-16T00:41:55.936Z,964.63
2016-12-16T00:42:56.056Z,964.6
2016-12-16T00:43:55.896Z,964.62
2016-12-16T00:44:55.878Z,964.64
2016-12-16T00:45:55.985Z,964.64
2016-12-16T00:46:55.839Z,964.64
2016-12-16T00:47:55.820Z,964.64
2016-12-16T00:48:55.857Z,964.64
2016-12-16T00:49:55.781Z,964.69
2016-12-16T00:50:55.764Z,964.68
2016-12-16T00:51:55.906Z,964.69
2016-12-16T00:52:55.725Z,964.72
2016-12-16T00:53:55.705Z,964.71
2016-12-16T00:54:55.686Z,964.71
2016-12-16T00:55:55.668Z,964.74
2016-12-16T00:56:55.648Z,964.73
2016-12-16T00:57:55.629Z,964.75
2016-12-16T00:58:55.611Z,964.78
2016-12-16T00:59:55.592Z,964.73
2016-12-16T01:00:55.572Z,964.74
2016-12-16T01:01:55.553Z,964.75
2016-12-16T01:02:55.534Z,964.79
2016-12-16T01:03:55.515Z,964.76
2016-12-16T01:04:55.637Z,964.75
2016-12-16T01:05:55.476Z,964.78
2016-12-16T01:06:55.458Z,964.8
2016-12-16T01:07:55.438Z,964.83
2016-12-16T01:08:55.419Z,964.83
2016-12-16T01:09:55.399Z,964.87
2016-12-16T01:10:55.381Z,964.84
2016-12-16T01:11:55.361Z,964.87
2016-12-16T01:12:55.342Z,964.88
2016-12-16T01:13:55.324Z,964.92
2016-12-16T01:14:55.304Z,964.89
2016-12-16T01:15:55.285Z,964.92
2016-12-16T01:16:55.406Z,964.89
2016-12-16T01:17:55.246Z,964.86
2016-12-16T01:18:55.227Z,964.87
2016-12-16T01:19:55.214Z,964.92
2016-12-16T01:20:55.188Z,964.95
2016-12-16T01:21:55.170Z,964.97
2016-12-16T01:22:55.286Z,964.89
2016-12-16T01:23:55.181Z,964.91
2016-12-16T01:24:55.111Z,964.93
2016-12-16T01:25:55.180Z,964.89
2016-12-16T01:26:55.185Z,964.91
2016-12-16T01:27:55.053Z,964.93
2016-12-16T01:28:55.034Z,964.91
2016-12-16T01:29:55.145Z,964.87
2016-12-16T01:30:54.995Z,964.89
2016-12-16T01:31:54.976Z,964.9
2016-12-16T01:32:55.102Z,964.91
2016-12-16T01:33:54.937Z,964.87
2016-12-16T01:34:54.918Z,964.9
2016-12-16T01:35:55.065Z,964.91
2016-12-16T01:36:54.880Z,964.88
2016-12-16T01:37:54.858Z,964.9
2016-12-16T01:38:54.841Z,964.84
2016-12-16T01:39:54.821Z,964.86
2016-12-16T01:40:54.801Z,964.87
2016-12-16T01:41:54.781Z,964.85
2016-12-16T01:42:54.764Z,964.83
2016-12-16T01:43:54.744Z,964.9
2016-12-16T01:44:54.724Z,964.89
2016-12-16T01:45:54.705Z,964.88
2016-12-16T01:46:54.686Z,964.9
2016-12-16T01:47:54.667Z,964.91
2016-12-16T01:48:54.646Z,964.86
2016-12-16T01:49:54.627Z,964.87
2016-12-16T01:50:54.608Z,964.85
2016-12-16T01:51:54.588Z,964.89
2016-12-16T01:52:54.637Z,964.87
2016-12-16T01:53:54.550Z,964.9
2016-12-16T01:54:54.641Z,964.91
2016-12-16T01:55:54.510Z,964.88
2016-12-16T01:56:54.491Z,964.89
2016-12-16T01:57:54.604Z,964.88
2016-12-16T01:58:54.453Z,964.88
2016-12-16T01:59:54.432Z,964.85
2016-12-16T02:00:54.414Z,964.89
2016-12-16T02:01:54.531Z,964.86
2016-12-16T02:02:54.382Z,964.87
2016-12-16T02:03:54.669Z,964.93
2016-12-16T02:04:54.337Z,964.94
2016-12-16T02:05:54.318Z,964.91
2016-12-16T02:06:54.439Z,964.87
2016-12-16T02:07:54.278Z,964.89
2016-12-16T02:08:54.259Z,964.87
2016-12-16T02:09:54.270Z,964.87
2016-12-16T02:10:54.220Z,964.88
2016-12-16T02:11:54.200Z,964.86
2016-12-16T02:12:54.295Z,964.87
2016-12-16T02:13:54.162Z,964.87
2016-12-16T02:14:54.142Z,964.86
2016-12-16T02:15:54.282Z,964.86
2016-12-16T02:16:54.105Z,964.85
2016-12-16T02:17:54.085Z,964.85
2016-12-16T02:18:54.095Z,964.79
2016-12-16T02:19:54.047Z,964.79
2016-12-16T02:20:54.028Z,964.81
2016-12-16T02:21:54.060Z,964.82
2016-12-16T02:22:53.989Z,964.78
2016-12-16T02:23:54.117Z,964.77
2016-12-16T02:24:53.950Z,964.77
2016-12-16T02:25:53.930Z,964.76
2016-12-16T02:26:53.911Z,964.76
2016-12-16T02:27:53.892Z,964.76
2016-12-16T02:28:53.873Z,964.8
2016-12-16T02:29:53.854Z,964.85
2016-12-16T02:30:53.833Z,964.78
2016-12-16T02:31:53.815Z,964.81
2016-12-16T02:32:53.797Z,964.79
2016-12-16T02:33:53.778Z,964.87
2016-12-16T02:34:53.758Z,964.82
2016-12-16T02:35:53.738Z,964.79
2016-12-16T02:36:53.719Z,964.83
2016-12-16T02:37:53.700Z,964.84
2016-12-16T02:38:53.807Z,964.85
2016-12-16T02:39:53.662Z,964.87
2016-12-16T02:40:53.642Z,964.86
2016-12-16T02:41:53.623Z,964.87
2016-12-16T02:42:53.603Z,964.83
2016-12-16T02:43:53.585Z,964.86
2016-12-16T02:44:56.599Z,964.86
2016-12-16T02:45:53.546Z,964.88
2016-12-16T02:46:53.527Z,964.89
2016-12-16T02:47:53.508Z,964.89
2016-12-16T02:48:53.528Z,964.93
2016-12-16T02:49:53.469Z,964.91
2016-12-16T02:50:53.449Z,964.94
2016-12-16T02:51:53.575Z,964.86
2016-12-16T02:52:53.413Z,964.9
2016-12-16T02:53:53.391Z,964.9
2016-12-16T02:54:53.373Z,964.9
2016-12-16T02:55:53.353Z,964.86
2016-12-16T02:56:53.334Z,964.82
2016-12-16T02:57:53.314Z,964.87
2016-12-16T02:58:53.295Z,964.88
2016-12-16T02:59:53.275Z,964.9
2016-12-16T03:00:53.258Z,964.87
2016-12-16T03:01:53.236Z,964.88
2016-12-16T03:02:53.366Z,964.87
2016-12-16T03:03:53.199Z,964.88
2016-12-16T03:04:53.345Z,964.89
2016-12-16T03:05:53.159Z,964.89
2016-12-16T03:06:53.140Z,964.9
2016-12-16T03:07:53.257Z,964.93
2016-12-16T03:08:53.102Z,964.89
2016-12-16T03:09:53.083Z,964.9
2016-12-16T03:10:53.063Z,964.86
2016-12-16T03:11:53.176Z,964.89
2016-12-16T03:12:53.028Z,964.91
2016-12-16T03:13:53.005Z,964.92
2016-12-16T03:14:53.157Z,964.93
2016-12-16T03:15:52.967Z,964.92
2016-12-16T03:16:52.947Z,964.96
2016-12-16T03:17:52.928Z,964.93
2016-12-16T03:18:52.909Z,964.96
2016-12-16T03:19:52.890Z,964.96
2016-12-16T03:20:52.870Z,964.97
2016-12-16T03:21:53.003Z,964.95
2016-12-16T03:22:52.830Z,964.94
2016-12-16T03:23:52.811Z,964.92
2016-12-16T03:24:52.792Z,964.95
2016-12-16T03:25:52.773Z,964.94
2016-12-16T03:26:52.752Z,964.92
2016-12-16T03:27:52.734Z,964.89
2016-12-16T03:28:52.715Z,964.91
2016-12-16T03:29:52.695Z,964.89
2016-12-16T03:30:52.674Z,964.91
2016-12-16T03:31:52.657Z,964.89
2016-12-16T03:32:52.638Z,964.92
2016-12-16T03:33:52.618Z,964.91
2016-12-16T03:34:52.597Z,964.98
2016-12-16T03:35:52.577Z,964.93
2016-12-16T03:36:52.560Z,964.98
2016-12-16T03:37:52.538Z,964.99
2016-12-16T03:38:52.520Z,964.98
2016-12-16T03:39:52.500Z,964.97
2016-12-16T03:40:52.482Z,964.98
2016-12-16T03:41:52.461Z,964.95
2016-12-16T03:42:52.441Z,964.94
2016-12-16T03:43:52.422Z,964.94
2016-12-16T03:44:52.403Z,964.98
2016-12-16T03:45:52.384Z,964.99
2016-12-16T03:46:52.365Z,965.01
2016-12-16T03:47:52.346Z,964.97
2016-12-16T03:48:52.325Z,964.95
2016-12-16T03:49:52.307Z,964.98
2016-12-16T03:50:52.287Z,964.97
2016-12-16T03:51:52.268Z,964.93
2016-12-16T03:52:52.248Z,964.98
2016-12-16T03:53:52.229Z,964.93
2016-12-16T03:54:52.210Z,964.96
2016-12-16T03:55:52.190Z,964.93
2016-12-16T03:56:52.168Z,964.98
2016-12-16T03:57:52.150Z,964.95
2016-12-16T03:58:52.132Z,964.97
2016-12-16T03:59:52.113Z,965
2016-12-16T04:00:52.090Z,964.99
2016-12-16T04:01:52.074Z,965
2016-12-16T04:02:52.054Z,964.98
2016-12-16T04:03:52.032Z,964.94
2016-12-16T04:04:52.014Z,964.91
2016-12-16T04:05:51.994Z,964.97
2016-12-16T04:06:51.976Z,964.98
2016-12-16T04:07:51.956Z,965
2016-12-16T04:08:51.936Z,965.03
2016-12-16T04:09:51.918Z,964.99
2016-12-16T04:10:51.897Z,965.05
2016-12-16T04:11:51.878Z,965
2016-12-16T04:12:51.858Z,965.01
2016-12-16T04:13:51.839Z,965.05
2016-12-16T04:14:51.820Z,965.01
2016-12-16T04:15:51.799Z,965.07
2016-12-16T04:16:51.780Z,965.02
2016-12-16T04:17:51.762Z,965.01
2016-12-16T04:18:51.741Z,964.97
2016-12-16T04:19:51.723Z,965.05
2016-12-16T04:20:51.703Z,965.01
2016-12-16T04:21:51.683Z,965.01
2016-12-16T04:22:51.663Z,965.02
2016-12-16T04:23:51.645Z,965
2016-12-16T04:24:51.626Z,965.05
2016-12-16T04:25:51.604Z,965.04
2016-12-16T04:26:51.586Z,965.08
2016-12-16T04:27:51.566Z,965.1
2016-12-16T04:28:51.546Z,965.07
2016-12-16T04:29:51.527Z,965.12
2016-12-16T04:30:51.508Z,965.05
2016-12-16T04:31:51.489Z,965.09
2016-12-16T04:32:51.469Z,965.12
2016-12-16T04:33:51.448Z,965.17
2016-12-16T04:34:51.430Z,965.16
2016-12-16T04:35:51.413Z,965.17
2016-12-16T04:36:51.391Z,965.17
2016-12-16T04:37:51.371Z,965.14
2016-12-16T04:38:51.352Z,965.14
2016-12-16T04:39:51.333Z,965.18
2016-12-16T04:40:51.314Z,965.19
2016-12-16T04:41:51.293Z,965.12
2016-12-16T04:42:51.276Z,965.19
2016-12-16T04:43:51.256Z,965.18
2016-12-16T04:44:51.236Z,965.19
2016-12-16T04:45:51.215Z,965.2
2016-12-16T04:46:51.196Z,965.23
2016-12-16T04:47:51.178Z,965.19
2016-12-16T04:48:51.163Z,965.21
2016-12-16T04:49:51.140Z,965.26
2016-12-16T04:50:51.118Z,965.21
2016-12-16T04:51:51.099Z,965.23
2016-12-16T04:52:51.080Z,965.26
2016-12-16T04:53:51.061Z,965.23
2016-12-16T04:54:51.040Z,965.27
2016-12-16T04:55:51.022Z,965.27
2016-12-16T04:56:51.002Z,965.29
2016-12-16T04:57:50.983Z,965.3
2016-12-16T04:58:50.963Z,965.3
2016-12-16T04:59:50.943Z,965.29
2016-12-16T05:00:50.926Z,965.33
2016-12-16T05:01:50.905Z,965.31
2016-12-16T05:02:50.885Z,965.32
2016-12-16T05:03:50.867Z,965.35
2016-12-16T05:04:50.848Z,965.31
2016-12-16T05:05:50.827Z,965.3
2016-12-16T05:06:50.808Z,965.34
2016-12-16T05:07:50.790Z,965.33
2016-12-16T05:08:50.769Z,965.33
2016-12-16T05:09:50.750Z,965.36
2016-12-16T05:10:50.732Z,965.4
2016-12-16T05:11:50.712Z,965.37
2016-12-16T05:12:50.693Z,965.41
2016-12-16T05:13:50.673Z,965.38
2016-12-16T05:14:50.653Z,965.36
2016-12-16T05:15:50.635Z,965.39
2016-12-16T05:16:50.616Z,965.44
2016-12-16T05:17:50.596Z,965.45
2016-12-16T05:18:50.577Z,965.44
2016-12-16T05:19:50.557Z,965.5
2016-12-16T05:20:50.538Z,965.46
2016-12-16T05:21:50.523Z,965.44
2016-12-16T05:22:50.500Z,965.5
2016-12-16T05:23:50.479Z,965.51
2016-12-16T05:24:50.461Z,965.49
2016-12-16T05:25:50.442Z,965.51
2016-12-16T05:26:50.422Z,965.49
2016-12-16T05:27:50.401Z,965.53
2016-12-16T05:28:50.384Z,965.5
2016-12-16T05:29:50.365Z,965.54
2016-12-16T05:30:50.345Z,965.51
2016-12-16T05:31:50.325Z,965.5
2016-12-16T05:32:50.306Z,965.52
2016-12-16T05:33:50.289Z,965.54
2016-12-16T05:34:50.267Z,965.53
2016-12-16T05:35:50.249Z,965.5
2016-12-16T05:36:50.230Z,965.55
2016-12-16T05:37:50.211Z,965.54
2016-12-16T05:38:50.191Z,965.51
2016-12-16T05:39:50.172Z,965.55
2016-12-16T05:40:50.154Z,965.52
2016-12-16T05:41:50.135Z,965.56
2016-12-16T05:42:50.114Z,965.47
2016-12-16T05:43:50.096Z,965.51
2016-12-16T05:44:50.077Z,965.54
2016-12-16T05:45:50.057Z,965.53
2016-12-16T05:46:50.038Z,965.5
2016-12-16T05:47:50.019Z,965.56
2016-12-16T05:48:50.002Z,965.54
2016-12-16T05:49:49.979Z,965.51
2016-12-16T05:50:49.962Z,965.56
2016-12-16T05:51:49.945Z,965.54
2016-12-16T05:52:49.923Z,965.57
2016-12-16T05:53:49.903Z,965.56
2016-12-16T05:54:49.885Z,965.56
2016-12-16T05:55:49.865Z,965.65
2016-12-16T05:56:49.845Z,965.55
2016-12-16T05:57:49.826Z,965.61
2016-12-16T05:58:49.807Z,965.56
2016-12-16T05:59:49.788Z,965.53
2016-12-16T06:00:49.767Z,965.55
2016-12-16T06:01:49.749Z,965.54
2016-12-16T06:02:49.730Z,965.57
2016-12-16T06:03:49.713Z,965.57
2016-12-16T06:04:49.691Z,965.56
2016-12-16T06:05:49.671Z,965.58
2016-12-16T06:06:49.652Z,965.53
2016-12-16T06:07:49.633Z,965.54
2016-12-16T06:08:49.614Z,965.56
2016-12-16T06:09:49.594Z,965.54
2016-12-16T06:10:49.575Z,965.52
2016-12-16T06:11:49.555Z,965.58
2016-12-16T06:12:49.538Z,965.58
2016-12-16T06:13:49.518Z,965.55
2016-12-16T06:14:49.497Z,965.59
2016-12-16T06:15:49.478Z,965.59
2016-12-16T06:16:49.460Z,965.57
2016-12-16T06:17:49.440Z,965.63
2016-12-16T06:18:49.419Z,965.63
2016-12-16T06:19:49.401Z,965.63
2016-12-16T06:20:49.382Z,965.7
2016-12-16T06:21:49.369Z,965.69
2016-12-16T06:22:49.343Z,965.67
2016-12-16T06:23:49.324Z,965.75
2016-12-16T06:24:49.305Z,965.72
2016-12-16T06:25:49.286Z,965.68
2016-12-16T06:26:49.266Z,965.69
2016-12-16T06:27:49.246Z,965.69
2016-12-16T06:28:49.229Z,965.67
2016-12-16T06:29:49.208Z,965.67
2016-12-16T06:30:49.188Z,965.67
2016-12-16T06:31:49.170Z,965.68
2016-12-16T06:32:49.151Z,965.65
2016-12-16T06:33:49.131Z,965.68
2016-12-16T06:34:49.112Z,965.63
2016-12-16T06:35:49.092Z,965.65
2016-12-16T06:36:49.073Z,965.66
2016-12-16T06:37:49.055Z,965.63
2016-12-16T06:38:49.035Z,965.67
2016-12-16T06:39:49.016Z,965.64
2016-12-16T06:40:48.997Z,965.62
2016-12-16T06:41:48.978Z,965.63
2016-12-16T06:42:48.958Z,965.65
2016-12-16T06:43:48.940Z,965.62
2016-12-16T06:44:48.920Z,965.67
2016-12-16T06:45:48.901Z,965.68
2016-12-16T06:46:48.882Z,965.73
2016-12-16T06:47:48.863Z,965.73
2016-12-16T06:48:48.844Z,965.71
2016-12-16T06:49:48.825Z,965.72
2016-12-16T06:50:48.806Z,965.71
2016-12-16T06:51:48.787Z,965.74
2016-12-16T06:52:48.768Z,965.78
2016-12-16T06:53:48.749Z,965.74
2016-12-16T06:54:48.730Z,965.78
2016-12-16T06:55:48.711Z,965.77
2016-12-16T06:56:48.692Z,965.8
2016-12-16T06:57:48.673Z,965.82
2016-12-16T06:58:48.652Z,965.83
2016-12-16T06:59:48.636Z,965.81
2016-12-16T07:00:48.616Z,965.79
2016-12-16T07:01:48.597Z,965.81
2016-12-16T07:02:48.577Z,965.77
2016-12-16T07:03:48.558Z,965.78
2016-12-16T07:04:48.543Z,965.79
2016-12-16T07:05:48.519Z,965.8
2016-12-16T07:06:48.501Z,965.79
2016-12-16T07:07:48.482Z,965.77
2016-12-16T07:08:48.464Z,965.8
2016-12-16T07:09:48.443Z,965.79
2016-12-16T07:10:48.425Z,965.83
2016-12-16T07:11:48.407Z,965.83
2016-12-16T07:12:48.386Z,965.79
2016-12-16T07:13:48.367Z,965.85
2016-12-16T07:14:48.347Z,965.84
2016-12-16T07:15:48.330Z,965.9
2016-12-16T07:16:48.312Z,965.86
2016-12-16T07:17:48.293Z,965.89
2016-12-16T07:18:48.296Z,965.85
2016-12-16T07:19:48.256Z,965.87
2016-12-16T07:20:48.236Z,965.9
2016-12-16T07:21:48.216Z,965.88
2016-12-16T07:22:48.198Z,965.87
2016-12-16T07:23:48.178Z,965.87
2016-12-16T07:24:48.158Z,965.92
2016-12-16T07:25:48.140Z,965.91
2016-12-16T07:26:48.122Z,965.86
2016-12-16T07:27:48.102Z,965.9
2016-12-16T07:28:48.083Z,965.87
2016-12-16T07:29:48.065Z,965.88
2016-12-16T07:30:48.046Z,965.86
2016-12-16T07:31:48.025Z,965.85
2016-12-16T07:32:48.007Z,965.87
2016-12-16T07:33:47.989Z,965.87
2016-12-16T07:34:47.969Z,965.87
2016-12-16T07:35:47.950Z,965.89
2016-12-16T07:36:47.931Z,965.87
2016-12-16T07:37:47.913Z,965.88
2016-12-16T07:38:47.891Z,965.9
2016-12-16T07:39:47.874Z,965.89
2016-12-16T07:40:47.854Z,965.91
2016-12-16T07:41:47.836Z,965.88
2016-12-16T07:42:47.817Z,965.83
2016-12-16T07:43:47.797Z,965.84
2016-12-16T07:44:47.779Z,965.89
2016-12-16T07:45:47.760Z,965.86
2016-12-16T07:46:47.740Z,965.86
2016-12-16T07:47:47.722Z,965.86
2016-12-16T07:48:47.703Z,965.87
2016-12-16T07:49:47.682Z,965.92
2016-12-16T07:50:47.665Z,965.84
2016-12-16T07:51:47.647Z,965.9
2016-12-16T07:52:47.627Z,965.87
2016-12-16T07:53:47.607Z,965.91
2016-12-16T07:54:47.587Z,965.93
2016-12-16T07:55:47.569Z,965.89
2016-12-16T07:56:47.550Z,965.9
2016-12-16T07:57:47.531Z,965.95
2016-12-16T07:58:47.512Z,965.96
2016-12-16T07:59:47.494Z,965.91
2016-12-16T08:00:47.474Z,965.94
2016-12-16T08:01:47.455Z,965.91
2016-12-16T08:02:47.436Z,965.99
2016-12-16T08:03:47.418Z,965.95
2016-12-16T08:04:47.398Z,966
2016-12-16T08:05:47.379Z,965.96
2016-12-16T08:06:47.359Z,965.98
2016-12-16T08:07:47.341Z,965.99
2016-12-16T08:08:47.323Z,965.95
2016-12-16T08:09:47.303Z,965.95
2016-12-16T08:10:47.284Z,965.96
2016-12-16T08:11:47.265Z,965.98
2016-12-16T08:12:47.247Z,965.94
2016-12-16T08:13:47.230Z,965.94
2016-12-16T08:14:47.208Z,965.98
2016-12-16T08:15:47.190Z,965.92
2016-12-16T08:16:47.170Z,965.95
2016-12-16T08:17:47.152Z,965.96
2016-12-16T08:18:47.133Z,965.96
2016-12-16T08:19:47.114Z,966.05
2016-12-16T08:20:47.096Z,966.03
2016-12-16T08:21:47.077Z,966
2016-12-16T08:22:47.057Z,966.01
2016-12-16T08:23:47.038Z,966.03
2016-12-16T08:24:47.024Z,966.01
2016-12-16T08:25:47.002Z,965.99
2016-12-16T08:26:46.982Z,966.03
2016-12-16T08:27:46.964Z,966.05
2016-12-16T08:28:46.945Z,966.04
2016-12-16T08:29:46.927Z,966.04
2016-12-16T08:30:46.907Z,966.07
2016-12-16T08:31:46.889Z,966.05
2016-12-16T08:32:46.871Z,966.07
2016-12-16T08:33:46.851Z,966.08
2016-12-16T08:34:46.833Z,966.11
2016-12-16T08:35:46.814Z,966.11
2016-12-16T08:36:46.795Z,966.12
2016-12-16T08:37:46.777Z,966.11
2016-12-16T08:38:46.757Z,966.11
2016-12-16T08:39:46.738Z,966.08
2016-12-16T08:40:46.721Z,966.13
2016-12-16T08:41:46.703Z,966.07
2016-12-16T08:42:46.683Z,966.1
2016-12-16T08:43:46.666Z,966.12
2016-12-16T08:44:46.645Z,966.1
2016-12-16T08:45:46.625Z,966.12
2016-12-16T08:46:46.608Z,966.15
2016-12-16T08:47:46.590Z,966.09
2016-12-16T08:48:46.569Z,966.13
2016-12-16T08:49:46.553Z,966.15
2016-12-16T08:50:46.533Z,966.13
2016-12-16T08:51:46.515Z,966.14
2016-12-16T08:52:46.495Z,966.2
2016-12-16T08:53:46.478Z,966.18
2016-12-16T08:54:46.461Z,966.17
2016-12-16T08:55:46.440Z,966.24
2016-12-16T08:56:46.422Z,966.21
2016-12-16T08:57:46.404Z,966.25
2016-12-16T08:58:46.385Z,966.26
2016-12-16T08:59:46.366Z,966.28
2016-12-16T09:00:46.346Z,966.33
2016-12-16T09:01:46.329Z,966.28
2016-12-16T09:02:46.309Z,966.3
2016-12-16T09:03:46.292Z,966.31
2016-12-16T09:04:46.274Z,966.3
2016-12-16T09:05:46.255Z,966.31
2016-12-16T09:06:46.235Z,966.32
2016-12-16T09:07:46.217Z,966.32
2016-12-16T09:08:46.198Z,966.35
2016-12-16T09:09:46.181Z,966.31
2016-12-16T09:10:46.161Z,966.39
2016-12-16T09:11:46.144Z,966.39
2016-12-16T09:12:46.124Z,966.36
2016-12-16T09:13:46.106Z,966.37
2016-12-16T09:14:46.087Z,966.38
2016-12-16T09:15:46.068Z,966.37
2016-12-16T09:16:46.051Z,966.43
2016-12-16T09:17:46.032Z,966.38
2016-12-16T09:18:46.013Z,966.41
2016-12-16T09:19:45.995Z,966.42
2016-12-16T09:20:45.977Z,966.43
2016-12-16T09:21:45.958Z,966.38
2016-12-16T09:22:45.940Z,966.45
2016-12-16T09:23:45.922Z,966.47
2016-12-16T09:24:45.902Z,966.43
2016-12-16T09:25:45.884Z,966.43
2016-12-16T09:26:45.866Z,966.43
2016-12-16T09:27:45.847Z,966.42
2016-12-16T09:28:45.829Z,966.45
2016-12-16T09:29:45.810Z,966.4
2016-12-16T09:30:45.792Z,966.47
2016-12-16T09:31:45.775Z,966.45
2016-12-16T09:32:45.757Z,966.44
2016-12-16T09:33:45.736Z,966.47
2016-12-16T09:34:45.719Z,966.45
2016-12-16T09:35:45.701Z,966.49
2016-12-16T09:36:45.681Z,966.48
2016-12-16T09:37:45.663Z,966.51
2016-12-16T09:38:45.645Z,966.51
2016-12-16T09:39:45.627Z,966.45
2016-12-16T09:40:45.608Z,966.55
2016-12-16T09:41:45.591Z,966.51
2016-12-16T09:42:45.571Z,966.52
2016-12-16T09:43:45.552Z,966.51
2016-12-16T09:44:45.536Z,966.47
2016-12-16T09:45:45.517Z,966.48
2016-12-16T09:46:45.498Z,966.55
2016-12-16T09:47:45.481Z,966.53
2016-12-16T09:48:45.463Z,966.49
2016-12-16T09:49:45.444Z,966.54
2016-12-16T09:50:45.424Z,966.56
2016-12-16T09:51:45.408Z,966.53
2016-12-16T09:52:45.390Z,966.61
2016-12-16T09:53:45.372Z,966.55
2016-12-16T09:54:45.353Z,966.57
2016-12-16T09:55:45.335Z,966.57
2016-12-16T09:56:45.318Z,966.59
2016-12-16T09:57:45.299Z,966.56
2016-12-16T09:58:45.279Z,966.59
2016-12-16T09:59:45.262Z,966.55
2016-12-16T10:00:45.246Z,966.57
2016-12-16T10:01:45.225Z,966.53
2016-12-16T10:02:45.207Z,966.52
2016-12-16T10:03:45.191Z,966.53
2016-12-16T10:04:45.172Z,966.55
2016-12-16T10:05:45.153Z,966.54
2016-12-16T10:06:45.136Z,966.51
2016-12-16T10:07:45.118Z,966.52
2016-12-16T10:08:45.099Z,966.47
2016-12-16T10:09:45.081Z,966.48
2016-12-16T10:10:45.064Z,966.52
2016-12-16T10:11:45.046Z,966.5
2016-12-16T10:12:45.027Z,966.46
2016-12-16T10:13:45.009Z,966.48
2016-12-16T10:14:44.991Z,966.45
2016-12-16T10:15:44.973Z,966.44
2016-12-16T10:16:44.956Z,966.49
2016-12-16T10:17:44.937Z,966.47
2016-12-16T10:18:44.919Z,966.45
2016-12-16T10:19:44.901Z,966.46
2016-12-16T10:20:44.883Z,966.5
2016-12-16T10:21:44.864Z,966.48
2016-12-16T10:22:44.848Z,966.46
2016-12-16T10:23:44.830Z,966.44
2016-12-16T10:24:44.812Z,966.42
2016-12-16T10:25:44.793Z,966.42
2016-12-16T10:26:44.776Z,966.44
2016-12-16T10:27:44.759Z,966.41
2016-12-16T10:28:44.740Z,966.36
2016-12-16T10:29:44.723Z,966.38
2016-12-16T10:30:44.705Z,966.37
2016-12-16T10:31:44.688Z,966.37
2016-12-16T10:32:44.670Z,966.34
2016-12-16T10:33:44.652Z,966.32
2016-12-16T10:34:44.634Z,966.32
2016-12-16T10:35:44.616Z,966.38
2016-12-16T10:36:44.605Z,966.35
2016-12-16T10:37:44.579Z,966.38
2016-12-16T10:38:44.561Z,966.36
2016-12-16T10:39:44.545Z,966.39
2016-12-16T10:40:44.527Z,966.4
2016-12-16T10:41:44.507Z,966.42
2016-12-16T10:42:44.491Z,966.41
2016-12-16T10:43:44.473Z,966.4
2016-12-16T10:44:44.456Z,966.36
2016-12-16T10:45:44.439Z,966.37
2016-12-16T10:46:44.420Z,966.33
2016-12-16T10:47:44.401Z,966.3
2016-12-16T10:48:44.382Z,966.28
2016-12-16T10:49:44.366Z,966.3
2016-12-16T10:50:44.348Z,966.32
2016-12-16T10:51:44.332Z,966.3
2016-12-16T10:52:44.312Z,966.29
2016-12-16T10:53:44.294Z,966.33
2016-12-16T10:54:44.278Z,966.31
2016-12-16T10:55:44.260Z,966.36
2016-12-16T10:56:44.241Z,966.36
2016-12-16T10:57:44.225Z,966.35
2016-12-16T10:58:44.207Z,966.33
2016-12-16T10:59:44.188Z,966.29
2016-12-16T11:00:44.171Z,966.34
2016-12-16T11:01:44.152Z,966.36
2016-12-16T11:02:44.135Z,966.34
2016-12-16T11:03:44.118Z,966.35
2016-12-16T11:04:44.100Z,966.33
2016-12-16T11:05:44.084Z,966.37
2016-12-16T11:06:44.066Z,966.35
2016-12-16T11:07:44.047Z,966.35
2016-12-16T11:08:44.031Z,966.39
2016-12-16T11:09:44.014Z,966.38
2016-12-16T11:10:43.996Z,966.36
2016-12-16T11:11:43.978Z,966.41
2016-12-16T11:12:43.961Z,966.4
2016-12-16T11:13:43.944Z,966.42
2016-12-16T11:14:43.927Z,966.39
2016-12-16T11:15:43.917Z,966.39
2016-12-16T11:16:43.890Z,966.37
2016-12-16T11:17:43.875Z,966.36
2016-12-16T11:18:43.856Z,966.36
2016-12-16T11:19:43.839Z,966.36
2016-12-16T11:20:43.822Z,966.34
2016-12-16T11:21:43.804Z,966.33
2016-12-16T11:22:43.786Z,966.35
2016-12-16T11:23:43.769Z,966.28
2016-12-16T11:24:43.754Z,966.31
2016-12-16T11:25:43.737Z,966.35
2016-12-16T11:26:43.717Z,966.28
2016-12-16T11:27:43.703Z,966.31
2016-12-16T11:28:43.685Z,966.29
2016-12-16T11:29:43.666Z,966.29
2016-12-16T11:30:43.647Z,966.28
2016-12-16T11:31:43.632Z,966.25
2016-12-16T11:32:43.614Z,966.29
2016-12-16T11:33:43.597Z,966.3
2016-12-16T11:34:43.579Z,966.24
2016-12-16T11:35:43.561Z,966.26
2016-12-16T11:36:43.545Z,966.25
2016-12-16T11:37:43.526Z,966.27
2016-12-16T11:38:43.510Z,966.24
2016-12-16T11:39:43.494Z,966.29
2016-12-16T11:40:43.476Z,966.28
2016-12-16T11:41:43.459Z,966.29
2016-12-16T11:42:43.442Z,966.26
2016-12-16T11:43:43.424Z,966.25
2016-12-16T11:44:43.407Z,966.3
2016-12-16T11:45:43.390Z,966.26
2016-12-16T11:46:43.371Z,966.29
2016-12-16T11:47:43.355Z,966.29
2016-12-16T11:48:43.338Z,966.29
2016-12-16T11:49:43.321Z,966.29
2016-12-16T11:50:43.305Z,966.3
2016-12-16T11:51:43.287Z,966.3
2016-12-16T11:52:43.270Z,966.31
2016-12-16T11:53:43.253Z,966.36
2016-12-16T11:54:43.235Z,966.37
2016-12-16T11:55:43.218Z,966.4
2016-12-16T11:56:43.199Z,966.43
2016-12-16T11:57:43.184Z,966.47
2016-12-16T11:58:43.166Z,966.48
2016-12-16T11:59:43.148Z,966.44
2016-12-16T12:00:43.133Z,966.47
2016-12-16T12:01:43.116Z,966.46
2016-12-16T12:02:43.116Z,966.51
2016-12-16T12:03:43.081Z,966.52
2016-12-16T12:04:43.065Z,966.5
2016-12-16T12:05:43.047Z,966.51
2016-12-16T12:06:43.030Z,966.5
2016-12-16T12:07:43.013Z,966.5
2016-12-16T12:08:42.998Z,966.53
2016-12-16T12:09:42.979Z,966.52
2016-12-16T12:10:42.961Z,966.56
2016-12-16T12:11:42.945Z,966.52
2016-12-16T12:12:42.927Z,966.53
2016-12-16T12:13:42.911Z,966.53
2016-12-16T12:14:42.894Z,966.56
2016-12-16T12:15:42.875Z,966.55
2016-12-16T12:16:42.860Z,966.58
2016-12-16T12:17:42.842Z,966.67
2016-12-16T12:18:42.826Z,966.64
2016-12-16T12:19:42.808Z,966.65
2016-12-16T12:20:42.791Z,966.67
2016-12-16T12:21:42.774Z,966.65
2016-12-16T12:22:42.758Z,966.64
2016-12-16T12:23:42.740Z,966.57
2016-12-16T12:24:42.722Z,966.54
2016-12-16T12:25:42.706Z,966.58
2016-12-16T12:26:42.689Z,966.56
2016-12-16T12:27:42.671Z,966.54
2016-12-16T12:28:42.654Z,966.54
2016-12-16T12:29:42.637Z,966.5
2016-12-16T12:30:42.621Z,966.47
2016-12-16T12:31:42.604Z,966.52